sensor_id;sensor_type;location;lat;lon;timestamp;pressure;altitude;pressure_sealevel;temperature;humidity
53916;BME280;39827;49.652;18.770;2023-03-15T00:01:32;95456.25;;;4.35;96.87
53916;BME280;39827;49.652;18.770;2023-03-15T00:03:57;95452.34;;;4.15;96.77
53916;BME280;39827;49.652;18.770;2023-03-15T00:06:23;95456.06;;;4.19;96.57
53916;BME280;39827;49.652;18.770;2023-03-15T00:08:49;95480.63;;;3.96;95.58
53916;BME280;39827;49.652;18.770;2023-03-15T00:11:16;95494.44;;;4.08;95.43
53916;BME280;39827;49.652;18.770;2023-03-15T00:13:42;95486.03;;;3.89;95.87
53916;BME280;39827;49.652;18.770;2023-03-15T00:16:08;95496.72;;;3.70;96.47
53916;BME280;39827;49.652;18.770;2023-03-15T00:18:33;95496.34;;;3.78;95.99
53916;BME280;39827;49.652;18.770;2023-03-15T00:20:58;95501.47;;;3.90;95.57
53916;BME280;39827;49.652;18.770;2023-03-15T00:23:24;95509.66;;;3.77;95.29
53916;BME280;39827;49.652;18.770;2023-03-15T00:25:51;95519.19;;;3.83;95.79
53916;BME280;39827;49.652;18.770;2023-03-15T00:28:17;95522.13;;;3.70;96.34
53916;BME280;39827;49.652;18.770;2023-03-15T00:30:43;95541.13;;;3.48;95.69
53916;BME280;39827;49.652;18.770;2023-03-15T00:33:10;95536.91;;;3.47;94.90
53916;BME280;39827;49.652;18.770;2023-03-15T00:35:39;95541.66;;;3.33;94.68
53916;BME280;39827;49.652;18.770;2023-03-15T00:38:05;95541.88;;;3.31;94.10
53916;BME280;39827;49.652;18.770;2023-03-15T00:40:30;95545.63;;;3.35;95.03
53916;BME280;39827;49.652;18.770;2023-03-15T00:42:56;95540.09;;;3.20;94.88
53916;BME280;39827;49.652;18.770;2023-03-15T00:45:22;95553.09;;;3.15;96.29
53916;BME280;39827;49.652;18.770;2023-03-15T00:47:49;95554.31;;;3.24;95.23
53916;BME280;39827;49.652;18.770;2023-03-15T00:50:14;95538.97;;;3.16;93.08
53916;BME280;39827;49.652;18.770;2023-03-15T00:52:40;95547.06;;;3.14;95.43
53916;BME280;39827;49.652;18.770;2023-03-15T00:55:10;95548.91;;;3.13;95.49
53916;BME280;39827;49.652;18.770;2023-03-15T00:57:38;95539.13;;;3.09;95.34
53916;BME280;39827;49.652;18.770;2023-03-15T01:00:06;95555.56;;;3.21;93.77
53916;BME280;39827;49.652;18.770;2023-03-15T01:02:33;95547.41;;;3.18;93.42
53916;BME280;39827;49.652;18.770;2023-03-15T01:04:58;95569.53;;;3.27;92.92
53916;BME280;39827;49.652;18.770;2023-03-15T01:07:23;95573.38;;;3.36;93.67
53916;BME280;39827;49.652;18.770;2023-03-15T01:09:49;95568.78;;;3.15;94.36
53916;BME280;39827;49.652;18.770;2023-03-15T01:12:14;95571.59;;;3.25;93.05
53916;BME280;39827;49.652;18.770;2023-03-15T01:14:40;95575.97;;;3.07;93.90
53916;BME280;39827;49.652;18.770;2023-03-15T01:17:05;95578.84;;;2.94;94.15
53916;BME280;39827;49.652;18.770;2023-03-15T01:19:31;95575.56;;;2.86;94.17
53916;BME280;39827;49.652;18.770;2023-03-15T01:21:56;95583.63;;;2.97;93.22
53916;BME280;39827;49.652;18.770;2023-03-15T01:24:21;95589.53;;;3.04;94.74
53916;BME280;39827;49.652;18.770;2023-03-15T01:26:47;95591.91;;;2.94;95.69
53916;BME280;39827;49.652;18.770;2023-03-15T01:29:12;95577.94;;;3.00;94.71
53916;BME280;39827;49.652;18.770;2023-03-15T01:31:38;95587.69;;;3.05;94.02
53916;BME280;39827;49.652;18.770;2023-03-15T01:34:03;95580.59;;;2.88;93.84
53916;BME280;39827;49.652;18.770;2023-03-15T01:36:29;95578.97;;;2.87;94.42
53916;BME280;39827;49.652;18.770;2023-03-15T01:38:55;95563.19;;;2.82;94.53
53916;BME280;39827;49.652;18.770;2023-03-15T01:41:20;95574.34;;;2.77;93.48
53916;BME280;39827;49.652;18.770;2023-03-15T01:43:45;95580.00;;;2.86;93.46
53916;BME280;39827;49.652;18.770;2023-03-15T01:46:29;95592.25;;;2.97;92.43
53916;BME280;39827;49.652;18.770;2023-03-15T01:49:14;95608.63;;;2.93;92.03
53916;BME280;39827;49.652;18.770;2023-03-15T01:51:45;95620.00;;;2.98;91.81
53916;BME280;39827;49.652;18.770;2023-03-15T01:54:26;95617.06;;;2.95;91.76
53916;BME280;39827;49.652;18.770;2023-03-15T01:56:58;95626.50;;;2.96;92.16
53916;BME280;39827;49.652;18.770;2023-03-15T01:59:28;95628.06;;;2.97;91.88
53916;BME280;39827;49.652;18.770;2023-03-15T02:01:55;95629.91;;;2.84;91.06
53916;BME280;39827;49.652;18.770;2023-03-15T02:04:24;95624.41;;;2.98;91.24
53916;BME280;39827;49.652;18.770;2023-03-15T02:06:54;95634.22;;;2.91;92.36
53916;BME280;39827;49.652;18.770;2023-03-15T02:09:28;95637.84;;;3.02;92.08
53916;BME280;39827;49.652;18.770;2023-03-15T02:11:55;95631.72;;;2.84;91.36
53916;BME280;39827;49.652;18.770;2023-03-15T02:14:22;95616.28;;;2.82;91.25
53916;BME280;39827;49.652;18.770;2023-03-15T02:16:48;95628.53;;;2.94;90.88
53916;BME280;39827;49.652;18.770;2023-03-15T02:25:41;95646.81;;;3.18;91.91
53916;BME280;39827;49.652;18.770;2023-03-15T02:28:12;95649.19;;;3.19;91.25
53916;BME280;39827;49.652;18.770;2023-03-15T02:30:39;95636.38;;;3.06;91.71
53916;BME280;39827;49.652;18.770;2023-03-15T02:33:09;95636.78;;;3.15;91.50
53916;BME280;39827;49.652;18.770;2023-03-15T02:35:37;95635.09;;;3.08;90.27
53916;BME280;39827;49.652;18.770;2023-03-15T02:38:02;95648.75;;;3.10;89.56
53916;BME280;39827;49.652;18.770;2023-03-15T02:40:30;95636.78;;;3.15;89.38
53916;BME280;39827;49.652;18.770;2023-03-15T02:43:17;95640.66;;;3.12;90.00
53916;BME280;39827;49.652;18.770;2023-03-15T02:45:44;95638.88;;;2.89;90.62
53916;BME280;39827;49.652;18.770;2023-03-15T02:48:11;95638.06;;;3.00;90.32
53916;BME280;39827;49.652;18.770;2023-03-15T02:50:37;95641.84;;;2.80;89.39
53916;BME280;39827;49.652;18.770;2023-03-15T02:53:03;95652.06;;;2.82;89.61
53916;BME280;39827;49.652;18.770;2023-03-15T02:55:29;95644.69;;;2.91;90.22
53916;BME280;39827;49.652;18.770;2023-03-15T02:57:57;95639.78;;;2.94;90.25
53916;BME280;39827;49.652;18.770;2023-03-15T03:00:23;95642.81;;;3.03;89.72
53916;BME280;39827;49.652;18.770;2023-03-15T03:02:48;95642.28;;;3.01;88.49
53916;BME280;39827;49.652;18.770;2023-03-15T03:05:15;95648.44;;;2.95;89.53
53916;BME280;39827;49.652;18.770;2023-03-15T03:07:40;95655.91;;;2.91;87.84
53916;BME280;39827;49.652;18.770;2023-03-15T03:10:12;95674.44;;;3.13;86.68
53916;BME280;39827;49.652;18.770;2023-03-15T03:12:37;95665.47;;;2.85;86.79
53916;BME280;39827;49.652;18.770;2023-03-15T03:15:03;95674.72;;;2.88;86.54
53916;BME280;39827;49.652;18.770;2023-03-15T03:17:29;95676.06;;;2.91;87.42
53916;BME280;39827;49.652;18.770;2023-03-15T03:19:55;95689.69;;;2.93;85.75
53916;BME280;39827;49.652;18.770;2023-03-15T03:22:20;95700.84;;;3.00;86.41
53916;BME280;39827;49.652;18.770;2023-03-15T03:24:52;95694.38;;;2.91;88.02
53916;BME280;39827;49.652;18.770;2023-03-15T03:27:17;95706.41;;;2.92;86.12
53916;BME280;39827;49.652;18.770;2023-03-15T03:29:43;95699.59;;;3.03;85.97
53916;BME280;39827;49.652;18.770;2023-03-15T03:32:09;95709.34;;;2.95;87.22
53916;BME280;39827;49.652;18.770;2023-03-15T03:34:35;95717.66;;;3.04;86.38
53916;BME280;39827;49.652;18.770;2023-03-15T03:37:00;95718.91;;;3.02;84.96
53916;BME280;39827;49.652;18.770;2023-03-15T03:39:26;95709.72;;;2.99;85.18
53916;BME280;39827;49.652;18.770;2023-03-15T03:41:51;95718.22;;;3.06;86.92
53916;BME280;39827;49.652;18.770;2023-03-15T03:44:17;95724.94;;;3.02;88.17
53916;BME280;39827;49.652;18.770;2023-03-15T03:46:42;95721.75;;;3.00;86.65
53916;BME280;39827;49.652;18.770;2023-03-15T03:49:08;95725.84;;;2.96;87.28
53916;BME280;39827;49.652;18.770;2023-03-15T03:51:33;95734.25;;;2.98;86.71
53916;BME280;39827;49.652;18.770;2023-03-15T03:54:00;95727.78;;;3.00;87.41
53916;BME280;39827;49.652;18.770;2023-03-15T03:56:25;95726.75;;;2.90;87.80
53916;BME280;39827;49.652;18.770;2023-03-15T03:58:51;95728.47;;;2.96;88.42
53916;BME280;39827;49.652;18.770;2023-03-15T04:01:16;95720.63;;;2.96;86.87
53916;BME280;39827;49.652;18.770;2023-03-15T04:03:42;95720.25;;;2.92;85.50
53916;BME280;39827;49.652;18.770;2023-03-15T04:06:08;95725.16;;;2.77;87.15
53916;BME280;39827;49.652;18.770;2023-03-15T04:08:33;95726.75;;;2.90;88.04
53916;BME280;39827;49.652;18.770;2023-03-15T04:10:58;95734.72;;;2.95;89.42
53916;BME280;39827;49.652;18.770;2023-03-15T04:13:24;95734.94;;;3.05;88.37
53916;BME280;39827;49.652;18.770;2023-03-15T04:15:50;95724.38;;;2.88;86.74
53916;BME280;39827;49.652;18.770;2023-03-15T04:18:16;95735.38;;;3.02;86.09
53916;BME280;39827;49.652;18.770;2023-03-15T04:20:42;95726.75;;;2.78;85.84
53916;BME280;39827;49.652;18.770;2023-03-15T04:23:12;95723.69;;;2.93;85.83
53916;BME280;39827;49.652;18.770;2023-03-15T04:25:37;95734.94;;;2.93;85.29
53916;BME280;39827;49.652;18.770;2023-03-15T04:28:03;95714.47;;;2.78;85.84
53916;BME280;39827;49.652;18.770;2023-03-15T04:30:29;95719.00;;;2.71;85.41
53916;BME280;39827;49.652;18.770;2023-03-15T04:32:55;95721.28;;;2.79;85.57
53916;BME280;39827;49.652;18.770;2023-03-15T04:35:28;95727.78;;;2.89;85.22
53916;BME280;39827;49.652;18.770;2023-03-15T04:37:54;95717.66;;;2.80;85.82
53916;BME280;39827;49.652;18.770;2023-03-15T04:40:21;95728.75;;;2.64;86.97
53916;BME280;39827;49.652;18.770;2023-03-15T04:42:52;95742.09;;;2.74;86.84
53916;BME280;39827;49.652;18.770;2023-03-15T04:45:25;95746.72;;;2.60;86.70
53916;BME280;39827;49.652;18.770;2023-03-15T04:47:51;95740.50;;;2.73;86.10
53916;BME280;39827;49.652;18.770;2023-03-15T04:50:18;95741.44;;;2.91;86.17
53916;BME280;39827;49.652;18.770;2023-03-15T04:52:44;95745.84;;;2.66;86.77
53916;BME280;39827;49.652;18.770;2023-03-15T04:55:10;95740.72;;;2.71;87.10
53916;BME280;39827;49.652;18.770;2023-03-15T04:57:35;95754.94;;;2.88;86.76
53916;BME280;39827;49.652;18.770;2023-03-15T05:00:02;95742.22;;;2.79;87.74
53916;BME280;39827;49.652;18.770;2023-03-15T05:02:31;95748.47;;;2.78;87.85
53916;BME280;39827;49.652;18.770;2023-03-15T05:04:56;95747.66;;;2.78;86.10
53916;BME280;39827;49.652;18.770;2023-03-15T05:07:22;95759.91;;;2.65;88.12
53916;BME280;39827;49.652;18.770;2023-03-15T05:09:47;95768.22;;;2.62;88.11
53916;BME280;39827;49.652;18.770;2023-03-15T05:12:13;95768.66;;;2.59;88.18
53916;BME280;39827;49.652;18.770;2023-03-15T05:14:38;95774.00;;;2.64;87.70
53916;BME280;39827;49.652;18.770;2023-03-15T05:17:04;95778.69;;;2.74;88.34
53916;BME280;39827;49.652;18.770;2023-03-15T05:19:29;95779.25;;;2.76;87.33
53916;BME280;39827;49.652;18.770;2023-03-15T05:21:59;95767.34;;;2.38;88.22
53916;BME280;39827;49.652;18.770;2023-03-15T05:24:24;95773.19;;;2.52;87.25
53916;BME280;39827;49.652;18.770;2023-03-15T05:26:50;95782.84;;;2.51;86.25
53916;BME280;39827;49.652;18.770;2023-03-15T05:29:19;95785.38;;;2.58;86.12
53916;BME280;39827;49.652;18.770;2023-03-15T05:31:46;95768.75;;;2.52;86.78
53916;BME280;39827;49.652;18.770;2023-03-15T05:34:11;95778.63;;;2.50;86.71
53916;BME280;39827;49.652;18.770;2023-03-15T05:36:37;95779.22;;;2.52;85.66
53916;BME280;39827;49.652;18.770;2023-03-15T05:39:02;95797.63;;;2.57;86.64
53916;BME280;39827;49.652;18.770;2023-03-15T05:41:28;95793.03;;;2.41;86.89
53916;BME280;39827;49.652;18.770;2023-03-15T05:43:53;95804.22;;;2.60;86.07
53916;BME280;39827;49.652;18.770;2023-03-15T05:46:19;95808.06;;;2.57;85.25
53916;BME280;39827;49.652;18.770;2023-03-15T05:48:47;95812.19;;;2.65;85.50
53916;BME280;39827;49.652;18.770;2023-03-15T05:51:12;95810.63;;;2.76;85.31
53916;BME280;39827;49.652;18.770;2023-03-15T05:53:38;95798.91;;;2.79;84.74
53916;BME280;39827;49.652;18.770;2023-03-15T05:56:03;95802.56;;;2.90;85.25
53916;BME280;39827;49.652;18.770;2023-03-15T05:58:29;95819.63;;;2.92;85.58
53916;BME280;39827;49.652;18.770;2023-03-15T06:00:54;95825.44;;;2.94;83.14
53916;BME280;39827;49.652;18.770;2023-03-15T06:03:19;95827.00;;;2.83;83.99
53916;BME280;39827;49.652;18.770;2023-03-15T06:05:45;95833.06;;;2.96;83.25
53916;BME280;39827;49.652;18.770;2023-03-15T06:08:10;95839.16;;;2.78;85.60
53916;BME280;39827;49.652;18.770;2023-03-15T06:10:35;95846.22;;;2.77;83.00
53916;BME280;39827;49.652;18.770;2023-03-15T06:13:01;95844.69;;;3.00;83.65
53916;BME280;39827;49.652;18.770;2023-03-15T06:15:27;95853.66;;;3.04;83.47
53916;BME280;39827;49.652;18.770;2023-03-15T06:17:52;95866.47;;;2.94;83.96
53916;BME280;39827;49.652;18.770;2023-03-15T06:20:18;95861.03;;;3.07;83.23
53916;BME280;39827;49.652;18.770;2023-03-15T06:22:43;95860.69;;;3.04;81.57
53916;BME280;39827;49.652;18.770;2023-03-15T06:25:09;95878.66;;;3.00;81.96
53916;BME280;39827;49.652;18.770;2023-03-15T06:27:36;95872.75;;;3.05;83.40
53916;BME280;39827;49.652;18.770;2023-03-15T06:30:02;95883.81;;;3.19;81.85
53916;BME280;39827;49.652;18.770;2023-03-15T06:32:28;95872.84;;;2.98;82.33
53916;BME280;39827;49.652;18.770;2023-03-15T06:34:53;95879.41;;;3.19;81.55
53916;BME280;39827;49.652;18.770;2023-03-15T06:37:19;95884.84;;;3.18;82.14
53916;BME280;39827;49.652;18.770;2023-03-15T06:39:46;95879.34;;;3.07;82.54
53916;BME280;39827;49.652;18.770;2023-03-15T06:42:11;95885.94;;;2.98;82.54
53916;BME280;39827;49.652;18.770;2023-03-15T06:44:40;95880.81;;;3.03;81.47
53916;BME280;39827;49.652;18.770;2023-03-15T06:47:06;95888.66;;;3.03;81.68
53916;BME280;39827;49.652;18.770;2023-03-15T06:49:32;95891.22;;;3.22;81.43
53916;BME280;39827;49.652;18.770;2023-03-15T06:51:58;95892.28;;;3.33;81.32
53916;BME280;39827;49.652;18.770;2023-03-15T06:54:23;95903.50;;;3.33;81.01
53916;BME280;39827;49.652;18.770;2023-03-15T06:56:49;95905.28;;;3.09;81.86
53916;BME280;39827;49.652;18.770;2023-03-15T06:59:15;95919.69;;;3.30;81.33
53916;BME280;39827;49.652;18.770;2023-03-15T07:01:41;95912.41;;;3.32;81.10
53916;BME280;39827;49.652;18.770;2023-03-15T07:04:06;95911.38;;;3.33;80.82
53916;BME280;39827;49.652;18.770;2023-03-15T07:06:32;95921.50;;;3.42;78.92
53916;BME280;39827;49.652;18.770;2023-03-15T07:08:58;95928.47;;;3.60;79.73
53916;BME280;39827;49.652;18.770;2023-03-15T07:11:23;95925.84;;;3.48;77.63
53916;BME280;39827;49.652;18.770;2023-03-15T07:13:49;95932.69;;;3.61;77.87
53916;BME280;39827;49.652;18.770;2023-03-15T07:16:14;95948.75;;;3.64;nan
53916;BME280;39827;49.652;18.770;2023-03-15T07:18:40;95943.72;;;3.51;76.97
53916;BME280;39827;49.652;18.770;2023-03-15T07:21:05;95948.63;;;3.59;77.51
53916;BME280;39827;49.652;18.770;2023-03-15T07:23:32;95946.69;;;3.43;78.42
53916;BME280;39827;49.652;18.770;2023-03-15T07:25:58;95945.66;;;3.68;79.48
53916;BME280;39827;49.652;18.770;2023-03-15T07:28:25;95960.72;;;3.72;78.14
53916;BME280;39827;49.652;18.770;2023-03-15T07:30:56;95970.03;;;3.92;75.37
53916;BME280;39827;49.652;18.770;2023-03-15T07:33:22;95963.66;;;3.76;77.58
53916;BME280;39827;49.652;18.770;2023-03-15T07:35:49;95962.41;;;3.55;76.44
53916;BME280;39827;49.652;18.770;2023-03-15T07:38:15;95966.03;;;3.54;74.61
53916;BME280;39827;49.652;18.770;2023-03-15T07:40:40;95972.56;;;3.75;74.95
53916;BME280;39827;49.652;18.770;2023-03-15T07:43:05;95980.53;;;3.92;74.42
53916;BME280;39827;49.652;18.770;2023-03-15T07:45:31;95986.34;;;4.18;74.36
53916;BME280;39827;49.652;18.770;2023-03-15T07:47:58;95986.44;;;4.11;73.89
53916;BME280;39827;49.652;18.770;2023-03-15T07:50:23;95991.25;;;4.02;73.85
53916;BME280;39827;49.652;18.770;2023-03-15T07:52:48;95982.69;;;3.95;73.42
53916;BME280;39827;49.652;18.770;2023-03-15T07:55:14;95997.28;;;4.03;72.50
53916;BME280;39827;49.652;18.770;2023-03-15T07:57:39;96000.13;;;4.01;72.37
53916;BME280;39827;49.652;18.770;2023-03-15T08:00:05;95998.66;;;4.17;72.00
53916;BME280;39827;49.652;18.770;2023-03-15T08:02:31;96005.00;;;4.10;73.00
53916;BME280;39827;49.652;18.770;2023-03-15T08:04:56;96010.84;;;4.24;70.03
53916;BME280;39827;49.652;18.770;2023-03-15T08:07:22;95995.22;;;4.29;69.07
53916;BME280;39827;49.652;18.770;2023-03-15T08:09:48;96012.06;;;4.33;68.46
53916;BME280;39827;49.652;18.770;2023-03-15T08:12:13;96008.44;;;4.34;69.60
53916;BME280;39827;49.652;18.770;2023-03-15T08:14:39;96008.91;;;4.31;70.43
53916;BME280;39827;49.652;18.770;2023-03-15T08:17:04;96005.59;;;4.24;70.73
53916;BME280;39827;49.652;18.770;2023-03-15T08:19:29;96012.88;;;4.46;71.16
53916;BME280;39827;49.652;18.770;2023-03-15T08:21:55;96016.31;;;4.46;71.05
53916;BME280;39827;49.652;18.770;2023-03-15T08:24:20;96008.88;;;4.43;71.81
53916;BME280;39827;49.652;18.770;2023-03-15T08:26:46;96011.97;;;4.28;73.82
53916;BME280;39827;49.652;18.770;2023-03-15T08:29:12;96012.44;;;4.37;71.99
53916;BME280;39827;49.652;18.770;2023-03-15T08:31:37;96023.59;;;4.44;72.08
53916;BME280;39827;49.652;18.770;2023-03-15T08:34:03;96030.66;;;4.43;71.77
53916;BME280;39827;49.652;18.770;2023-03-15T08:36:28;96031.22;;;4.10;70.97
53916;BME280;39827;49.652;18.770;2023-03-15T08:38:54;96027.94;;;4.14;71.57
53916;BME280;39827;49.652;18.770;2023-03-15T08:41:19;96036.59;;;4.27;69.19
53916;BME280;39827;49.652;18.770;2023-03-15T08:43:44;96034.63;;;4.22;71.42
53916;BME280;39827;49.652;18.770;2023-03-15T08:46:10;96029.28;;;4.17;68.62
53916;BME280;39827;49.652;18.770;2023-03-15T08:48:35;96042.38;;;4.17;69.56
53916;BME280;39827;49.652;18.770;2023-03-15T08:51:05;96040.00;;;4.39;70.08
53916;BME280;39827;49.652;18.770;2023-03-15T08:53:31;96045.13;;;4.34;71.62
53916;BME280;39827;49.652;18.770;2023-03-15T08:55:57;96051.28;;;4.04;70.06
53916;BME280;39827;49.652;18.770;2023-03-15T08:58:23;96054.13;;;4.14;70.29
53916;BME280;39827;49.652;18.770;2023-03-15T09:00:49;96056.06;;;4.19;68.53
53916;BME280;39827;49.652;18.770;2023-03-15T09:03:15;96048.56;;;4.11;70.05
53916;BME280;39827;49.652;18.770;2023-03-15T09:05:41;96042.50;;;4.58;71.17
53916;BME280;39827;49.652;18.770;2023-03-15T09:08:06;96048.31;;;4.48;71.55
53916;BME280;39827;49.652;18.770;2023-03-15T09:10:32;96057.44;;;4.69;70.17
53916;BME280;39827;49.652;18.770;2023-03-15T09:12:58;96067.88;;;4.93;69.37
53916;BME280;39827;49.652;18.770;2023-03-15T09:15:24;96060.66;;;5.13;70.04
53916;BME280;39827;49.652;18.770;2023-03-15T09:17:49;96066.31;;;5.21;68.42
53916;BME280;39827;49.652;18.770;2023-03-15T09:20:15;96070.63;;;5.28;65.34
53916;BME280;39827;49.652;18.770;2023-03-15T09:22:48;96083.75;;;5.28;66.27
53916;BME280;39827;49.652;18.770;2023-03-15T09:25:13;96075.34;;;5.14;65.87
53916;BME280;39827;49.652;18.770;2023-03-15T09:27:39;96076.34;;;5.25;65.69
53916;BME280;39827;49.652;18.770;2023-03-15T09:30:05;96094.19;;;5.11;64.73
53916;BME280;39827;49.652;18.770;2023-03-15T09:32:30;96093.81;;;5.19;64.36
53916;BME280;39827;49.652;18.770;2023-03-15T09:35:01;96093.81;;;5.19;66.05
53916;BME280;39827;49.652;18.770;2023-03-15T09:37:26;96091.91;;;5.14;64.84
53916;BME280;39827;49.652;18.770;2023-03-15T09:39:52;96084.06;;;5.02;65.51
53916;BME280;39827;49.652;18.770;2023-03-15T09:42:23;96083.94;;;4.97;66.12
53916;BME280;39827;49.652;18.770;2023-03-15T09:45:06;96087.81;;;5.06;67.33
53916;BME280;39827;49.652;18.770;2023-03-15T09:47:43;96100.94;;;5.06;65.32
53916;BME280;39827;49.652;18.770;2023-03-15T09:50:21;96102.44;;;4.78;65.51
53916;BME280;39827;49.652;18.770;2023-03-15T09:53:00;96096.16;;;4.79;64.99
53916;BME280;39827;49.652;18.770;2023-03-15T09:55:28;96105.75;;;4.62;63.15
53916;BME280;39827;49.652;18.770;2023-03-15T09:57:55;96113.72;;;4.67;62.42
53916;BME280;39827;49.652;18.770;2023-03-15T10:00:39;96107.09;;;5.00;62.19
53916;BME280;39827;49.652;18.770;2023-03-15T10:03:14;96111.47;;;4.82;61.42
53916;BME280;39827;49.652;18.770;2023-03-15T10:05:46;96117.69;;;5.17;60.78
53916;BME280;39827;49.652;18.770;2023-03-15T10:08:15;96115.13;;;5.34;61.13
53916;BME280;39827;49.652;18.770;2023-03-15T10:13:50;96121.00;;;5.54;59.74
53916;BME280;39827;49.652;18.770;2023-03-15T10:16:31;96110.03;;;5.57;59.81
53916;BME280;39827;49.652;18.770;2023-03-15T10:24:19;96121.47;;;5.51;59.77
53916;BME280;39827;49.652;18.770;2023-03-15T10:26:48;96117.34;;;5.55;60.79
53916;BME280;39827;49.652;18.770;2023-03-15T10:29:17;96126.81;;;5.27;60.73
53916;BME280;39827;49.652;18.770;2023-03-15T10:31:44;96128.66;;;5.02;61.32
53916;BME280;39827;49.652;18.770;2023-03-15T10:34:12;96125.13;;;4.97;60.91
53916;BME280;39827;49.652;18.770;2023-03-15T10:36:44;96132.88;;;5.03;61.11
53916;BME280;39827;49.652;18.770;2023-03-15T10:39:10;96130.06;;;5.34;58.90
53916;BME280;39827;49.652;18.770;2023-03-15T10:41:42;96129.56;;;5.49;59.20
53916;BME280;39827;49.652;18.770;2023-03-15T10:44:19;96128.84;;;5.66;59.18
53916;BME280;39827;49.652;18.770;2023-03-15T10:49:37;96138.53;;;5.94;58.39
53916;BME280;39827;49.652;18.770;2023-03-15T10:52:03;96143.09;;;5.99;61.90
53916;BME280;39827;49.652;18.770;2023-03-15T10:54:31;96131.66;;;6.05;57.15
53916;BME280;39827;49.652;18.770;2023-03-15T10:57:03;96138.06;;;5.97;58.02
53916;BME280;39827;49.652;18.770;2023-03-15T10:59:34;96135.59;;;5.61;56.36
53916;BME280;39827;49.652;18.770;2023-03-15T11:02:21;96142.16;;;5.47;57.37
53916;BME280;39827;49.652;18.770;2023-03-15T11:04:52;96132.53;;;5.82;58.00
53916;BME280;39827;49.652;18.770;2023-03-15T11:07:24;96123.31;;;5.79;57.07
53916;BME280;39827;49.652;18.770;2023-03-15T11:10:00;96124.47;;;5.71;56.31
53916;BME280;39827;49.652;18.770;2023-03-15T11:12:28;96124.47;;;6.00;56.73
53916;BME280;39827;49.652;18.770;2023-03-15T11:15:05;96130.56;;;6.18;56.33
53916;BME280;39827;49.652;18.770;2023-03-15T11:17:34;96135.53;;;6.32;55.39
53916;BME280;39827;49.652;18.770;2023-03-15T11:20:31;96135.03;;;6.52;54.65
53916;BME280;39827;49.652;18.770;2023-03-15T11:22:59;96130.03;;;6.50;54.27
53916;BME280;39827;49.652;18.770;2023-03-15T11:25:30;96134.22;;;6.86;53.70
53916;BME280;39827;49.652;18.770;2023-03-15T11:27:58;96134.84;;;6.93;52.46
53916;BME280;39827;49.652;18.770;2023-03-15T11:30:30;96135.72;;;6.99;56.15
53916;BME280;39827;49.652;18.770;2023-03-15T11:33:04;96131.63;;;7.08;54.54
53916;BME280;39827;49.652;18.770;2023-03-15T11:35:50;96129.28;;;7.12;53.32
53916;BME280;39827;49.652;18.770;2023-03-15T11:38:25;96122.72;;;7.14;54.42
53916;BME280;39827;49.652;18.770;2023-03-15T11:40:55;96128.41;;;7.06;55.01
53916;BME280;39827;49.652;18.770;2023-03-15T11:43:39;96132.56;;;7.02;55.75
53916;BME280;39827;49.652;18.770;2023-03-15T11:46:15;96137.78;;;6.97;55.38
53916;BME280;39827;49.652;18.770;2023-03-15T11:48:50;96132.50;;;7.14;52.58
53916;BME280;39827;49.652;18.770;2023-03-15T11:51:17;96148.47;;;7.07;51.45
53916;BME280;39827;49.652;18.770;2023-03-15T11:59:19;96140.44;;;7.19;50.94
53916;BME280;39827;49.652;18.770;2023-03-15T12:01:50;96122.84;;;7.02;52.47
53916;BME280;39827;49.652;18.770;2023-03-15T12:04:39;96121.31;;;7.51;54.83
53916;BME280;39827;49.652;18.770;2023-03-15T12:09:47;96126.53;;;7.46;53.80
53916;BME280;39827;49.652;18.770;2023-03-15T12:15:14;96121.94;;;7.36;54.79
53916;BME280;39827;49.652;18.770;2023-03-15T12:23:13;96133.66;;;7.23;51.94
53916;BME280;39827;49.652;18.770;2023-03-15T12:28:19;96126.94;;;7.15;51.43
53916;BME280;39827;49.652;18.770;2023-03-15T12:30:52;96127.81;;;6.99;52.36
53916;BME280;39827;49.652;18.770;2023-03-15T12:33:20;96122.63;;;6.87;52.93
53916;BME280;39827;49.652;18.770;2023-03-15T12:35:47;96130.78;;;6.85;52.29
53916;BME280;39827;49.652;18.770;2023-03-15T12:38:16;96135.19;;;6.80;52.43
53916;BME280;39827;49.652;18.770;2023-03-15T12:40:56;96140.63;;;6.73;53.43
53916;BME280;39827;49.652;18.770;2023-03-15T12:43:42;96132.56;;;6.80;54.67
53916;BME280;39827;49.652;18.770;2023-03-15T12:51:54;96136.16;;;5.93;53.55
53916;BME280;39827;49.652;18.770;2023-03-15T12:54:21;96129.16;;;5.98;57.22
53916;BME280;39827;49.652;18.770;2023-03-15T12:56:52;96139.66;;;6.28;56.59
53916;BME280;39827;49.652;18.770;2023-03-15T12:59:30;96145.78;;;6.16;54.20
53916;BME280;39827;49.652;18.770;2023-03-15T13:01:58;96139.75;;;6.33;54.26
53916;BME280;39827;49.652;18.770;2023-03-15T13:04:26;96142.22;;;6.39;53.92
53916;BME280;39827;49.652;18.770;2023-03-15T13:06:57;96142.91;;;6.35;54.14
53916;BME280;39827;49.652;18.770;2023-03-15T13:12:36;96162.38;;;6.51;52.77
53916;BME280;39827;49.652;18.770;2023-03-15T13:18:20;96165.50;;;6.31;55.16
53916;BME280;39827;49.652;18.770;2023-03-15T13:23:27;96173.94;;;6.67;54.20
53916;BME280;39827;49.652;18.770;2023-03-15T13:28:40;96182.31;;;6.81;53.52
53916;BME280;39827;49.652;18.770;2023-03-15T13:31:15;96188.41;;;7.04;54.84
53916;BME280;39827;49.652;18.770;2023-03-15T13:33:46;96177.78;;;7.16;53.17
53916;BME280;39827;49.652;18.770;2023-03-15T13:36:14;96178.66;;;7.22;51.84
53916;BME280;39827;49.652;18.770;2023-03-15T13:38:46;96185.50;;;7.23;52.49
53916;BME280;39827;49.652;18.770;2023-03-15T13:43:52;96204.22;;;7.66;50.96
53916;BME280;39827;49.652;18.770;2023-03-15T13:46:21;96201.22;;;7.79;51.74
53916;BME280;39827;49.652;18.770;2023-03-15T13:48:47;96217.44;;;7.93;49.67
53916;BME280;39827;49.652;18.770;2023-03-15T13:53:45;96226.78;;;8.01;48.08
53916;BME280;39827;49.652;18.770;2023-03-15T13:56:16;96214.13;;;7.81;48.94
53916;BME280;39827;49.652;18.770;2023-03-15T13:58:42;96214.66;;;7.78;48.97
53916;BME280;39827;49.652;18.770;2023-03-15T14:01:10;96207.13;;;7.64;51.66
53916;BME280;39827;49.652;18.770;2023-03-15T14:03:37;96208.31;;;7.34;51.40